createdAt,value
2019-04-10T00:01:23.694Z,60.40
2019-04-10T00:04:12.679Z,62.63
2019-04-10T00:10:15.952Z,62.23
2019-04-10T00:16:36.165Z,64.00
2019-04-10T00:19:45.772Z,61.50
2019-04-10T00:22:54.823Z,72.17
2019-04-10T00:25:43.891Z,64.77
2019-04-10T00:28:33.860Z,72.63
2019-04-10T00:31:43.192Z,81.93
2019-04-10T00:34:32.138Z,63.17
2019-04-10T00:37:23.978Z,68.60
2019-04-10T00:39:59.474Z,75.30
2019-04-10T00:42:41.571Z,85.97
2019-04-10T00:45:23.416Z,73.03
2019-04-10T00:48:05.797Z,81.77
2019-04-10T00:50:48.233Z,75.23
2019-04-10T00:53:30.324Z,89.10
2019-04-10T00:56:00.246Z,73.20
2019-04-10T00:58:49.202Z,85.63
2019-04-10T01:01:19.362Z,90.30
2019-04-10T01:06:57.359Z,83.23
2019-04-10T01:09:46.640Z,92.73
2019-04-10T01:12:36.304Z,74.17
2019-04-10T01:15:45.469Z,91.53
2019-04-10T01:18:35.164Z,76.57
2019-04-10T01:21:44.365Z,80.77
2019-04-10T01:24:33.579Z,84.10
2019-04-10T01:27:23.618Z,71.30
2019-04-10T01:30:32.986Z,70.77
2019-04-10T01:36:22.797Z,67.47
2019-04-10T01:39:06.140Z,68.37
2019-04-10T01:41:48.310Z,63.83
2019-04-10T01:44:30.918Z,59.53
2019-04-10T01:47:13.050Z,61.10
2019-04-10T01:49:55.760Z,63.33
2019-04-10T01:52:37.280Z,63.30
2019-04-10T01:55:20.093Z,61.43
2019-04-10T02:05:09.258Z,55.73
2019-04-10T02:08:19.033Z,53.87
2019-04-10T02:11:08.864Z,55.77
2019-04-10T02:17:08.466Z,46.90
2019-04-10T02:20:18.937Z,45.30
2019-04-10T02:26:23.051Z,50.77
2019-04-10T02:29:12.033Z,53.77
2019-04-10T02:32:02.073Z,50.60
2019-04-10T02:35:16.558Z,54.27
2019-04-10T02:38:30.537Z,57.73
2019-04-10T02:40:57.497Z,60.17
2019-04-10T02:43:39.920Z,63.03
2019-04-10T02:46:22.060Z,62.80
2019-04-10T02:49:04.678Z,62.43
2019-04-10T02:51:49.725Z,60.17
2019-04-10T02:54:33.523Z,62.53
2019-04-10T02:57:17.184Z,63.57
2019-04-10T03:00:00.902Z,62.80
2019-04-10T03:02:42.572Z,63.37
2019-04-10T03:05:27.097Z,61.67
2019-04-10T03:08:09.387Z,64.47
2019-04-10T03:10:56.813Z,57.13
2019-04-10T03:13:39.405Z,63.60
2019-04-10T03:16:21.535Z,61.63
2019-04-10T03:19:03.448Z,62.60
2019-04-10T03:21:45.366Z,64.47
2019-04-10T03:24:27.887Z,70.93
2019-04-10T03:27:10.131Z,67.13
2019-04-10T03:29:52.234Z,69.10
2019-04-10T03:32:59.704Z,74.63
2019-04-10T03:35:41.073Z,79.47
2019-04-10T03:38:23.717Z,82.43
2019-04-10T03:41:06.023Z,77.23
2019-04-10T03:43:47.621Z,77.63
2019-04-10T03:46:29.862Z,92.67
2019-04-10T03:49:11.933Z,97.40
2019-04-10T03:51:54.585Z,85.03
2019-04-10T03:54:37.980Z,83.63
2019-04-10T03:57:21.303Z,89.40
2019-04-10T04:00:03.758Z,88.07
2019-04-10T04:02:46.398Z,87.03
2019-04-10T04:05:28.811Z,88.53
2019-04-10T04:08:11.167Z,84.40
2019-04-10T04:10:53.354Z,87.57
2019-04-10T04:13:23.740Z,94.17
2019-04-10T04:16:12.938Z,87.93
2019-04-10T04:28:45.271Z,89.13
2019-04-10T04:31:34.170Z,90.07
2019-04-10T04:34:23.202Z,87.70
2019-04-10T04:37:04.787Z,92.10
2019-04-10T04:39:46.276Z,97.87
2019-04-10T04:42:28.741Z,99.63
2019-04-10T04:45:10.781Z,97.83
2019-04-10T04:47:53.938Z,103.07
2019-04-10T04:50:35.743Z,97.73
2019-04-10T04:53:18.295Z,101.93
2019-04-10T04:56:01.657Z,102.33
2019-04-10T04:58:43.553Z,95.50
2019-04-10T05:01:25.015Z,101.93
2019-04-10T05:04:06.863Z,96.70
2019-04-10T05:06:50.063Z,96.70
2019-04-10T05:09:36.923Z,93.07
2019-04-10T05:12:16.310Z,94.43
2019-04-10T05:14:58.845Z,96.20
2019-04-10T05:17:41.571Z,102.83
2019-04-10T05:20:23.398Z,93.97
2019-04-10T05:23:06.241Z,98.33
2019-04-10T05:25:48.046Z,89.60
2019-04-10T05:28:29.954Z,95.17
2019-04-10T05:31:13.067Z,98.97
2019-04-10T05:33:55.331Z,97.30
2019-04-10T05:36:37.737Z,93.37
2019-04-10T05:39:19.524Z,93.90
2019-04-10T05:42:02.490Z,93.73
2019-04-10T05:44:44.667Z,94.13
2019-04-10T05:47:26.547Z,91.43
2019-04-10T05:50:08.463Z,89.50
2019-04-10T05:52:51.715Z,93.10
2019-04-10T05:55:34.335Z,95.77
2019-04-10T05:58:15.918Z,91.30
2019-04-10T06:00:59.371Z,91.93
2019-04-10T06:03:41.441Z,92.23
2019-04-10T06:06:24.224Z,86.47
2019-04-10T06:09:06.556Z,86.80
2019-04-10T06:11:48.993Z,83.03
2019-04-10T06:14:32.146Z,77.63
2019-04-10T06:17:14.402Z,74.47
2019-04-10T06:19:56.703Z,76.33
2019-04-10T06:22:38.877Z,77.03
2019-04-10T06:25:23.531Z,76.43
2019-04-10T06:28:05.312Z,78.90
2019-04-10T06:30:48.073Z,77.20
2019-04-10T06:33:18.211Z,77.23
2019-04-10T06:39:16.310Z,72.63
2019-04-10T06:42:24.950Z,77.20
2019-04-10T06:51:35.602Z,81.57
2019-04-10T07:00:48.623Z,76.37
2019-04-10T07:04:02.323Z,82.90
2019-04-10T07:07:11.341Z,86.13
2019-04-10T07:10:26.021Z,78.83
2019-04-10T07:13:26.254Z,79.57
2019-04-10T07:16:15.977Z,83.00
2019-04-10T07:22:43.630Z,77.23
2019-04-10T07:25:49.945Z,85.43
2019-04-10T07:28:58.950Z,88.73
2019-04-10T07:31:48.842Z,86.73
2019-04-10T07:34:40.305Z,80.77
2019-04-10T07:37:29.898Z,88.43
2019-04-10T07:47:38.076Z,79.70
2019-04-10T07:50:48.548Z,81.70
2019-04-10T07:53:18.930Z,78.33
2019-04-10T07:56:00.442Z,86.10
2019-04-10T07:58:40.038Z,95.50
2019-04-10T08:04:37.410Z,78.10
2019-04-10T08:07:47.296Z,81.00
2019-04-10T08:10:57.413Z,80.00
2019-04-10T08:14:08.409Z,81.40
2019-04-10T08:17:16.995Z,85.60
2019-04-10T08:20:26.516Z,89.20
2019-04-10T08:23:15.714Z,83.43
2019-04-10T08:26:05.719Z,88.80
2019-04-10T08:29:14.630Z,92.30
2019-04-10T08:32:03.738Z,86.37
2019-04-10T08:34:52.787Z,87.33
2019-04-10T08:37:34.866Z,91.53
2019-04-10T08:40:16.967Z,84.40
2019-04-10T08:42:59.949Z,85.77
2019-04-10T08:45:47.196Z,86.53
2019-04-10T08:48:27.600Z,85.47
2019-04-10T08:51:08.787Z,82.87
2019-04-10T08:53:50.844Z,87.07
2019-04-10T08:56:22.545Z,87.93
2019-04-10T09:02:44.695Z,89.37
2019-04-10T09:05:33.674Z,88.80
2019-04-10T09:08:23.122Z,84.10
2019-04-10T09:11:12.124Z,84.10
2019-04-10T09:17:15.379Z,81.07
2019-04-10T09:23:45.727Z,84.87
2019-04-10T09:26:48.748Z,83.40
2019-04-10T09:29:38.278Z,87.70
2019-04-10T09:35:57.159Z,83.13
2019-04-10T09:39:07.422Z,90.20
2019-04-10T09:41:56.528Z,85.20
2019-04-10T09:44:46.558Z,82.37
2019-04-10T09:47:55.829Z,111.93
2019-04-10T09:53:59.453Z,80.73
2019-04-10T09:57:09.123Z,82.07
2019-04-10T10:00:19.199Z,79.07
2019-04-10T10:06:25.179Z,81.60
2019-04-10T10:09:29.065Z,81.40
2019-04-10T10:12:36.524Z,80.67
2019-04-10T10:15:25.827Z,88.13
2019-04-10T10:18:15.087Z,81.10
2019-04-10T10:21:04.182Z,83.10
2019-04-10T10:23:34.026Z,82.37
2019-04-10T10:29:37.645Z,85.17
2019-04-10T10:32:46.940Z,83.23
2019-04-10T10:35:35.954Z,81.60
2019-04-10T10:38:17.729Z,81.33
2019-04-10T10:40:59.372Z,78.67
2019-04-10T10:43:41.072Z,80.20
2019-04-10T10:46:23.086Z,78.70
2019-04-10T10:49:04.611Z,78.30
2019-04-10T10:51:35.021Z,81.23
2019-04-10T10:54:45.176Z,84.10
2019-04-10T10:57:55.341Z,77.67
2019-04-10T11:01:05.314Z,76.60
2019-04-10T11:04:15.041Z,76.70
2019-04-10T11:07:24.563Z,76.13
2019-04-10T11:17:03.389Z,73.10
2019-04-10T11:20:12.732Z,72.47
2019-04-10T11:23:22.403Z,72.37
2019-04-10T11:26:14.047Z,69.53
2019-04-10T11:29:22.095Z,68.80
2019-04-10T11:32:14.388Z,69.80
2019-04-10T11:35:24.254Z,70.60
2019-04-10T11:38:13.537Z,69.70
2019-04-10T11:41:03.541Z,69.43
2019-04-10T11:44:15.981Z,69.67
2019-04-10T11:47:24.571Z,69.57
2019-04-10T11:50:34.801Z,70.40
2019-04-10T11:53:47.239Z,68.20
2019-04-10T12:00:20.498Z,66.57
2019-04-10T12:03:18.313Z,63.30
2019-04-10T12:12:51.472Z,60.80
2019-04-10T12:22:28.108Z,65.77
2019-04-10T12:25:17.354Z,66.87
2019-04-10T12:28:06.419Z,64.27
2019-04-10T12:30:37.364Z,66.70
2019-04-10T12:37:07.706Z,62.57
2019-04-10T12:39:57.132Z,67.00
2019-04-10T12:46:21.096Z,64.50
2019-04-10T12:49:10.086Z,68.87
2019-04-10T13:01:40.862Z,67.33
2019-04-10T13:04:50.960Z,67.70
2019-04-10T13:07:40.477Z,63.23
2019-04-10T13:13:44.248Z,67.80
2019-04-10T13:16:52.883Z,67.03
2019-04-10T13:19:22.908Z,69.50
2019-04-10T13:22:11.931Z,65.03
2019-04-10T13:24:42.163Z,63.37
2019-04-10T13:27:31.070Z,62.57
2019-04-10T13:30:20.718Z,60.87
2019-04-10T13:36:43.910Z,66.37
2019-04-10T13:39:46.590Z,72.47
2019-04-10T13:42:30.193Z,69.83
2019-04-10T13:45:11.503Z,66.77
2019-04-10T13:47:54.597Z,65.83
2019-04-10T13:50:36.950Z,69.53
2019-04-10T13:53:19.142Z,72.60
2019-04-10T13:56:01.828Z,70.63
2019-04-10T13:58:31.652Z,65.73
2019-04-10T14:01:39.922Z,66.40
2019-04-10T14:07:42.750Z,65.73
2019-04-10T14:17:01.698Z,71.77
2019-04-10T14:20:11.087Z,67.50
2019-04-10T14:26:55.144Z,64.87
2019-04-10T14:33:17.644Z,65.63
2019-04-10T14:36:07.567Z,65.00
2019-04-10T14:39:15.346Z,66.30
2019-04-10T14:41:54.032Z,68.10
2019-04-10T14:44:36.788Z,68.87
2019-04-10T14:47:19.165Z,67.93
2019-04-10T14:50:02.024Z,74.50
2019-04-10T14:52:43.481Z,68.47
2019-04-10T14:55:29.223Z,74.57
2019-04-10T14:58:20.447Z,87.40
2019-04-10T15:00:55.076Z,91.33
2019-04-10T15:03:36.861Z,76.90
2019-04-10T15:06:21.327Z,76.60
2019-04-10T15:09:04.110Z,79.30
2019-04-10T15:11:45.306Z,74.47
2019-04-10T15:14:15.506Z,70.17
2019-04-10T15:16:53.425Z,79.33
2019-04-10T15:19:18.416Z,79.87
2019-04-10T15:22:07.561Z,83.33
2019-04-10T15:24:57.402Z,70.87
2019-04-10T15:28:06.860Z,67.87
2019-04-10T15:37:23.026Z,66.90
2019-04-10T15:40:18.564Z,68.77
2019-04-10T15:46:35.926Z,68.00
2019-04-10T15:52:33.377Z,61.37
2019-04-10T15:58:52.021Z,63.53
2019-04-10T16:05:15.424Z,60.73
2019-04-10T16:14:33.291Z,61.63
2019-04-10T16:18:01.765Z,61.67
2019-04-10T16:20:51.324Z,61.77
2019-04-10T16:23:44.318Z,62.57
2019-04-10T16:26:33.620Z,60.73
2019-04-10T16:29:22.858Z,61.53
2019-04-10T16:35:27.387Z,63.53
2019-04-10T16:38:30.974Z,60.60
2019-04-10T16:41:13.572Z,61.13
2019-04-10T16:43:55.616Z,57.20
2019-04-10T16:46:38.336Z,58.00
2019-04-10T16:49:20.995Z,61.40
2019-04-10T16:52:02.913Z,56.60
2019-04-10T16:54:45.241Z,53.07
2019-04-10T16:57:26.869Z,52.47
2019-04-10T17:00:09.171Z,51.67
2019-04-10T17:02:50.654Z,51.80
2019-04-10T17:05:35.196Z,54.27
2019-04-10T17:08:17.104Z,54.77
2019-04-10T17:10:58.909Z,57.60
2019-04-10T17:13:42.580Z,56.13
2019-04-10T17:16:24.428Z,51.23
2019-04-10T17:19:07.616Z,55.10
2019-04-10T17:21:50.018Z,63.10
2019-04-10T17:24:31.881Z,57.83
2019-04-10T17:27:13.534Z,57.40
2019-04-10T17:29:56.556Z,56.90
2019-04-10T17:32:42.655Z,52.13
2019-04-10T17:35:24.575Z,50.33
2019-04-10T17:38:06.915Z,55.27
2019-04-10T17:40:52.991Z,59.20
2019-04-10T17:43:32.963Z,60.40
2019-04-10T17:46:15.277Z,61.13
2019-04-10T17:48:57.062Z,59.43
2019-04-10T17:51:39.056Z,59.70
2019-04-10T17:54:21.011Z,56.93
2019-04-10T17:57:02.586Z,60.33
2019-04-10T17:59:44.804Z,57.63
2019-04-10T18:02:15.734Z,57.80
2019-04-10T18:05:26.543Z,61.80
2019-04-10T18:08:36.723Z,59.60
2019-04-10T18:11:45.695Z,55.63
2019-04-10T18:14:55.530Z,60.37
2019-04-10T18:24:28.424Z,51.07
2019-04-10T18:37:15.969Z,48.90
2019-04-10T18:40:16.136Z,59.30
2019-04-10T18:42:58.107Z,56.33
2019-04-10T18:45:53.794Z,55.13
2019-04-10T18:48:24.902Z,55.80
2019-04-10T18:51:09.180Z,62.53
2019-04-10T18:53:51.219Z,58.70
2019-04-10T18:56:33.570Z,66.67
2019-04-10T18:59:23.461Z,59.73
2019-04-10T19:02:13.683Z,60.53
2019-04-10T19:07:38.445Z,56.00
2019-04-10T19:10:28.672Z,55.40
2019-04-10T19:13:17.834Z,58.67
2019-04-10T19:16:07.023Z,58.60
2019-04-10T19:25:20.984Z,61.63
2019-04-10T19:28:35.031Z,59.80
2019-04-10T19:34:37.190Z,54.80
2019-04-10T19:37:46.960Z,56.77
2019-04-10T19:40:49.182Z,57.63
2019-04-10T19:43:32.100Z,59.60
2019-04-10T19:46:15.383Z,56.20
2019-04-10T19:48:57.659Z,53.43
2019-04-10T19:51:39.174Z,54.23
2019-04-10T19:54:22.049Z,56.13
2019-04-10T19:57:04.726Z,53.70
2019-04-10T19:59:46.365Z,59.17
2019-04-10T20:02:27.956Z,54.10
2019-04-10T20:05:09.532Z,51.63
2019-04-10T20:07:51.835Z,48.27
2019-04-10T20:10:35.179Z,53.40
2019-04-10T20:13:18.614Z,57.37
2019-04-10T20:16:00.771Z,61.97
2019-04-10T20:18:43.209Z,52.93
2019-04-10T20:21:26.010Z,67.73
2019-04-10T20:24:08.200Z,52.63
2019-04-10T20:26:39.110Z,49.83
2019-04-10T20:29:47.892Z,55.60
2019-04-10T20:32:18.010Z,51.53
2019-04-10T20:35:07.791Z,50.07
2019-04-10T20:37:58.888Z,48.87
2019-04-10T20:41:00.470Z,50.70
2019-04-10T20:43:42.882Z,47.47
2019-04-10T20:46:24.887Z,46.70
2019-04-10T20:49:08.450Z,45.30
2019-04-10T20:51:38.378Z,49.63
2019-04-10T20:54:08.637Z,47.37
2019-04-10T20:56:57.635Z,50.17
2019-04-10T20:59:46.787Z,50.53
2019-04-10T21:05:50.682Z,59.73
2019-04-10T21:09:01.104Z,61.77
2019-04-10T21:12:13.181Z,61.50
2019-04-10T21:15:20.225Z,66.20
2019-04-10T21:18:09.242Z,66.70
2019-04-10T21:20:59.495Z,63.30
2019-04-10T21:30:54.533Z,46.40
2019-04-10T21:34:03.399Z,47.87
2019-04-10T21:36:53.342Z,40.67
2019-04-10T21:39:54.924Z,44.20
2019-04-10T21:42:37.087Z,40.73
2019-04-10T21:45:20.895Z,40.63
2019-04-10T21:48:02.667Z,41.23
2019-04-10T21:50:45.976Z,40.33
2019-04-10T21:53:28.653Z,38.13
2019-04-10T21:59:09.031Z,33.87
2019-04-10T22:09:06.071Z,35.57
2019-04-10T22:21:31.070Z,32.57
2019-04-10T22:24:40.716Z,34.30
2019-04-10T22:28:04.594Z,29.80
2019-04-10T22:31:04.004Z,29.83
2019-04-10T22:37:09.844Z,27.60
2019-04-10T22:40:11.333Z,28.60
2019-04-10T22:42:53.281Z,27.30
2019-04-10T22:45:36.019Z,26.30
2019-04-10T22:48:18.798Z,26.27
2019-04-10T22:54:21.958Z,28.80
2019-04-10T22:57:31.392Z,25.60
2019-04-10T23:03:55.111Z,25.00
2019-04-10T23:09:53.118Z,26.97
2019-04-10T23:12:52.018Z,26.83
2019-04-10T23:15:52.580Z,26.77
2019-04-10T23:18:43.524Z,24.77
2019-04-10T23:21:53.282Z,29.87
2019-04-10T23:27:57.408Z,28.00
2019-04-10T23:30:46.655Z,24.40
2019-04-10T23:33:36.490Z,28.33
2019-04-10T23:36:46.571Z,28.43
2019-04-10T23:39:56.607Z,27.80
2019-04-10T23:43:07.810Z,26.47
2019-04-10T23:45:41.997Z,26.93
2019-04-10T23:48:24.642Z,28.53
2019-04-10T23:51:07.072Z,31.23
2019-04-10T23:53:49.041Z,26.83
2019-04-10T23:56:31.523Z,26.60
